sensor_id;sensor_type;location;lat;lon;timestamp;P1;durP1;ratioP1;P2;durP2;ratioP2
67889;SDS011;54685;52.082;5.426;2023-07-20T00:01:51;7.63;;;4.70;;
67889;SDS011;54685;52.082;5.426;2023-07-20T00:04:18;7.40;;;4.45;;
67889;SDS011;54685;52.082;5.426;2023-07-20T00:06:45;6.53;;;4.65;;
67889;SDS011;54685;52.082;5.426;2023-07-20T00:09:12;9.48;;;4.40;;
67889;SDS011;54685;52.082;5.426;2023-07-20T00:11:39;9.45;;;4.93;;
67889;SDS011;54685;52.082;5.426;2023-07-20T00:14:06;7.30;;;5.00;;
67889;SDS011;54685;52.082;5.426;2023-07-20T00:16:33;10.15;;;4.80;;
67889;SDS011;54685;52.082;5.426;2023-07-20T00:19:00;6.55;;;4.53;;
67889;SDS011;54685;52.082;5.426;2023-07-20T00:21:27;6.90;;;4.45;;
67889;SDS011;54685;52.082;5.426;2023-07-20T00:23:53;6.57;;;4.90;;
67889;SDS011;54685;52.082;5.426;2023-07-20T00:26:20;4.60;;;4.20;;
67889;SDS011;54685;52.082;5.426;2023-07-20T00:28:49;5.07;;;4.05;;
67889;SDS011;54685;52.082;5.426;2023-07-20T00:31:18;5.47;;;3.90;;
67889;SDS011;54685;52.082;5.426;2023-07-20T00:33:45;5.70;;;3.92;;
67889;SDS011;54685;52.082;5.426;2023-07-20T00:36:12;4.70;;;3.70;;
67889;SDS011;54685;52.082;5.426;2023-07-20T00:38:41;4.70;;;3.50;;
67889;SDS011;54685;52.082;5.426;2023-07-20T00:41:08;4.00;;;2.92;;
67889;SDS011;54685;52.082;5.426;2023-07-20T00:43:35;4.10;;;3.10;;
67889;SDS011;54685;52.082;5.426;2023-07-20T00:46:02;7.05;;;2.83;;
67889;SDS011;54685;52.082;5.426;2023-07-20T00:48:29;5.38;;;2.55;;
67889;SDS011;54685;52.082;5.426;2023-07-20T00:50:58;2.50;;;2.30;;
67889;SDS011;54685;52.082;5.426;2023-07-20T00:53:26;5.30;;;2.70;;
67889;SDS011;54685;52.082;5.426;2023-07-20T00:55:53;5.45;;;2.25;;
67889;SDS011;54685;52.082;5.426;2023-07-20T00:58:20;2.97;;;2.08;;
67889;SDS011;54685;52.082;5.426;2023-07-20T01:00:48;4.70;;;1.95;;
67889;SDS011;54685;52.082;5.426;2023-07-20T01:03:15;1.75;;;1.65;;
67889;SDS011;54685;52.082;5.426;2023-07-20T01:05:47;2.95;;;1.80;;
67889;SDS011;54685;52.082;5.426;2023-07-20T01:09:08;1.50;;;1.40;;
67889;SDS011;54685;52.082;5.426;2023-07-20T01:11:38;1.60;;;1.50;;
67889;SDS011;54685;52.082;5.426;2023-07-20T01:14:22;1.70;;;1.50;;
67889;SDS011;54685;52.082;5.426;2023-07-20T01:16:50;1.85;;;1.25;;
67889;SDS011;54685;52.082;5.426;2023-07-20T01:19:19;2.30;;;1.70;;
67889;SDS011;54685;52.082;5.426;2023-07-20T01:32:54;2.30;;;1.40;;
67889;SDS011;54685;52.082;5.426;2023-07-20T01:35:23;1.92;;;1.45;;
67889;SDS011;54685;52.082;5.426;2023-07-20T01:37:55;1.42;;;1.30;;
67889;SDS011;54685;52.082;5.426;2023-07-20T01:40:22;1.80;;;1.30;;
67889;SDS011;54685;52.082;5.426;2023-07-20T01:42:51;1.70;;;1.60;;
67889;SDS011;54685;52.082;5.426;2023-07-20T01:45:19;4.13;;;1.55;;
67889;SDS011;54685;52.082;5.426;2023-07-20T01:47:45;1.63;;;1.52;;
67889;SDS011;54685;52.082;5.426;2023-07-20T01:50:12;1.77;;;1.67;;
67889;SDS011;54685;52.082;5.426;2023-07-20T01:52:39;2.42;;;1.55;;
67889;SDS011;54685;52.082;5.426;2023-07-20T01:55:06;1.50;;;1.40;;
67889;SDS011;54685;52.082;5.426;2023-07-20T01:57:33;1.80;;;1.42;;
67889;SDS011;54685;52.082;5.426;2023-07-20T02:00:00;2.78;;;1.60;;
67889;SDS011;54685;52.082;5.426;2023-07-20T02:02:39;1.55;;;1.45;;
67889;SDS011;54685;52.082;5.426;2023-07-20T02:05:07;2.85;;;1.55;;
67889;SDS011;54685;52.082;5.426;2023-07-20T02:07:34;2.95;;;1.75;;
67889;SDS011;54685;52.082;5.426;2023-07-20T02:10:01;3.75;;;1.80;;
67889;SDS011;54685;52.082;5.426;2023-07-20T02:12:28;1.90;;;1.40;;
67889;SDS011;54685;52.082;5.426;2023-07-20T02:14:55;1.60;;;1.50;;
67889;SDS011;54685;52.082;5.426;2023-07-20T02:17:22;2.08;;;1.60;;
67889;SDS011;54685;52.082;5.426;2023-07-20T02:19:55;2.47;;;1.60;;
67889;SDS011;54685;52.082;5.426;2023-07-20T02:22:23;1.70;;;1.60;;
67889;SDS011;54685;52.082;5.426;2023-07-20T02:24:50;2.00;;;1.70;;
67889;SDS011;54685;52.082;5.426;2023-07-20T02:27:17;1.92;;;1.60;;
67889;SDS011;54685;52.082;5.426;2023-07-20T02:29:44;3.88;;;1.70;;
67889;SDS011;54685;52.082;5.426;2023-07-20T02:32:11;3.33;;;1.45;;
67889;SDS011;54685;52.082;5.426;2023-07-20T02:34:38;3.45;;;1.50;;
67889;SDS011;54685;52.082;5.426;2023-07-20T02:37:05;1.85;;;1.63;;
67889;SDS011;54685;52.082;5.426;2023-07-20T02:39:35;3.28;;;1.70;;
67889;SDS011;54685;52.082;5.426;2023-07-20T02:42:02;1.98;;;1.88;;
67889;SDS011;54685;52.082;5.426;2023-07-20T02:44:29;2.33;;;2.13;;
67889;SDS011;54685;52.082;5.426;2023-07-20T02:46:56;3.13;;;1.58;;
67889;SDS011;54685;52.082;5.426;2023-07-20T02:49:23;1.75;;;1.65;;
67889;SDS011;54685;52.082;5.426;2023-07-20T02:51:50;1.90;;;1.48;;
67889;SDS011;54685;52.082;5.426;2023-07-20T02:54:16;2.00;;;1.70;;
67889;SDS011;54685;52.082;5.426;2023-07-20T02:56:43;1.58;;;1.48;;
67889;SDS011;54685;52.082;5.426;2023-07-20T02:59:10;1.30;;;1.30;;
67889;SDS011;54685;52.082;5.426;2023-07-20T03:01:37;3.70;;;1.50;;
67889;SDS011;54685;52.082;5.426;2023-07-20T03:04:04;2.35;;;1.20;;
67889;SDS011;54685;52.082;5.426;2023-07-20T03:06:31;1.55;;;1.30;;
67889;SDS011;54685;52.082;5.426;2023-07-20T03:08:58;1.40;;;1.30;;
67889;SDS011;54685;52.082;5.426;2023-07-20T03:11:25;2.17;;;1.58;;
67889;SDS011;54685;52.082;5.426;2023-07-20T03:13:52;1.60;;;1.50;;
67889;SDS011;54685;52.082;5.426;2023-07-20T03:16:19;3.88;;;1.70;;
67889;SDS011;54685;52.082;5.426;2023-07-20T03:18:47;2.20;;;2.00;;
67889;SDS011;54685;52.082;5.426;2023-07-20T03:21:14;1.88;;;1.70;;
67889;SDS011;54685;52.082;5.426;2023-07-20T03:23:42;3.28;;;1.85;;
67889;SDS011;54685;52.082;5.426;2023-07-20T03:26:09;3.35;;;1.70;;
67889;SDS011;54685;52.082;5.426;2023-07-20T03:28:37;3.72;;;2.10;;
67889;SDS011;54685;52.082;5.426;2023-07-20T03:31:05;1.90;;;1.80;;
67889;SDS011;54685;52.082;5.426;2023-07-20T03:33:36;3.57;;;1.93;;
67889;SDS011;54685;52.082;5.426;2023-07-20T03:36:03;2.00;;;1.80;;
67889;SDS011;54685;52.082;5.426;2023-07-20T03:38:30;2.25;;;1.90;;
67889;SDS011;54685;52.082;5.426;2023-07-20T03:40:58;2.45;;;1.80;;
67889;SDS011;54685;52.082;5.426;2023-07-20T03:43:26;3.25;;;1.60;;
67889;SDS011;54685;52.082;5.426;2023-07-20T03:45:54;2.35;;;1.67;;
67889;SDS011;54685;52.082;5.426;2023-07-20T03:48:21;4.80;;;1.80;;
67889;SDS011;54685;52.082;5.426;2023-07-20T03:50:50;2.25;;;1.77;;
67889;SDS011;54685;52.082;5.426;2023-07-20T03:53:18;6.03;;;1.85;;
67889;SDS011;54685;52.082;5.426;2023-07-20T03:55:48;4.03;;;2.05;;
67889;SDS011;54685;52.082;5.426;2023-07-20T03:58:16;2.33;;;1.73;;
67889;SDS011;54685;52.082;5.426;2023-07-20T04:00:47;2.28;;;1.90;;
67889;SDS011;54685;52.082;5.426;2023-07-20T04:03:17;3.00;;;1.63;;
67889;SDS011;54685;52.082;5.426;2023-07-20T04:05:47;3.05;;;1.60;;
67889;SDS011;54685;52.082;5.426;2023-07-20T04:08:14;3.53;;;1.50;;
67889;SDS011;54685;52.082;5.426;2023-07-20T04:10:44;2.78;;;1.67;;
67889;SDS011;54685;52.082;5.426;2023-07-20T04:13:11;1.77;;;1.67;;
67889;SDS011;54685;52.082;5.426;2023-07-20T04:15:38;2.25;;;1.60;;
67889;SDS011;54685;52.082;5.426;2023-07-20T04:18:05;2.13;;;1.70;;
67889;SDS011;54685;52.082;5.426;2023-07-20T04:20:32;2.20;;;2.00;;
67889;SDS011;54685;52.082;5.426;2023-07-20T04:22:59;4.28;;;2.10;;
67889;SDS011;54685;52.082;5.426;2023-07-20T04:25:26;4.57;;;2.10;;
67889;SDS011;54685;52.082;5.426;2023-07-20T04:27:52;3.78;;;2.20;;
67889;SDS011;54685;52.082;5.426;2023-07-20T04:30:20;3.55;;;2.40;;
67889;SDS011;54685;52.082;5.426;2023-07-20T04:32:48;3.05;;;2.42;;
67889;SDS011;54685;52.082;5.426;2023-07-20T04:35:17;2.83;;;2.42;;
67889;SDS011;54685;52.082;5.426;2023-07-20T04:38:06;2.42;;;2.22;;
67889;SDS011;54685;52.082;5.426;2023-07-20T04:40:34;4.18;;;2.33;;
67889;SDS011;54685;52.082;5.426;2023-07-20T04:43:01;3.30;;;2.50;;
67889;SDS011;54685;52.082;5.426;2023-07-20T04:45:29;3.10;;;1.90;;
67889;SDS011;54685;52.082;5.426;2023-07-20T04:47:56;2.78;;;2.20;;
67889;SDS011;54685;52.082;5.426;2023-07-20T04:50:23;4.38;;;2.63;;
67889;SDS011;54685;52.082;5.426;2023-07-20T04:52:51;4.88;;;2.88;;
67889;SDS011;54685;52.082;5.426;2023-07-20T04:55:20;3.65;;;2.83;;
67889;SDS011;54685;52.082;5.426;2023-07-20T04:57:47;4.68;;;2.75;;
67889;SDS011;54685;52.082;5.426;2023-07-20T05:00:15;3.85;;;3.10;;
67889;SDS011;54685;52.082;5.426;2023-07-20T05:02:42;4.15;;;3.35;;
67889;SDS011;54685;52.082;5.426;2023-07-20T05:05:09;6.35;;;3.33;;
67889;SDS011;54685;52.082;5.426;2023-07-20T05:07:36;5.82;;;2.90;;
67889;SDS011;54685;52.082;5.426;2023-07-20T05:10:03;5.03;;;3.30;;
67889;SDS011;54685;52.082;5.426;2023-07-20T05:12:30;4.78;;;3.60;;
67889;SDS011;54685;52.082;5.426;2023-07-20T05:14:57;6.03;;;3.42;;
67889;SDS011;54685;52.082;5.426;2023-07-20T05:17:24;3.67;;;3.28;;
67889;SDS011;54685;52.082;5.426;2023-07-20T05:19:51;5.57;;;3.20;;
67889;SDS011;54685;52.082;5.426;2023-07-20T05:22:18;5.50;;;3.38;;
67889;SDS011;54685;52.082;5.426;2023-07-20T05:24:45;6.85;;;4.05;;
67889;SDS011;54685;52.082;5.426;2023-07-20T05:27:12;4.43;;;3.35;;
67889;SDS011;54685;52.082;5.426;2023-07-20T05:29:43;3.85;;;3.45;;
67889;SDS011;54685;52.082;5.426;2023-07-20T05:32:11;4.55;;;3.78;;
67889;SDS011;54685;52.082;5.426;2023-07-20T05:34:38;10.27;;;3.63;;
67889;SDS011;54685;52.082;5.426;2023-07-20T05:37:06;3.97;;;3.22;;
67889;SDS011;54685;52.082;5.426;2023-07-20T05:39:33;4.15;;;2.95;;
67889;SDS011;54685;52.082;5.426;2023-07-20T05:41:59;3.78;;;3.13;;
67889;SDS011;54685;52.082;5.426;2023-07-20T05:44:26;4.00;;;3.10;;
67889;SDS011;54685;52.082;5.426;2023-07-20T05:46:53;3.75;;;2.95;;
67889;SDS011;54685;52.082;5.426;2023-07-20T05:49:23;3.22;;;2.88;;
67889;SDS011;54685;52.082;5.426;2023-07-20T05:51:50;3.65;;;2.28;;
67889;SDS011;54685;52.082;5.426;2023-07-20T05:54:17;2.78;;;2.40;;
67889;SDS011;54685;52.082;5.426;2023-07-20T05:56:45;5.35;;;2.80;;
67889;SDS011;54685;52.082;5.426;2023-07-20T05:59:12;3.85;;;2.63;;
67889;SDS011;54685;52.082;5.426;2023-07-20T06:01:39;3.72;;;2.75;;
67889;SDS011;54685;52.082;5.426;2023-07-20T06:04:06;3.38;;;2.38;;
67889;SDS011;54685;52.082;5.426;2023-07-20T06:06:33;3.63;;;2.88;;
67889;SDS011;54685;52.082;5.426;2023-07-20T06:09:00;7.75;;;2.95;;
67889;SDS011;54685;52.082;5.426;2023-07-20T06:11:33;4.40;;;3.05;;
67889;SDS011;54685;52.082;5.426;2023-07-20T06:14:00;3.13;;;2.67;;
67889;SDS011;54685;52.082;5.426;2023-07-20T06:16:27;3.65;;;2.55;;
67889;SDS011;54685;52.082;5.426;2023-07-20T06:18:55;2.72;;;2.20;;
67889;SDS011;54685;52.082;5.426;2023-07-20T06:21:21;2.72;;;2.50;;
67889;SDS011;54685;52.082;5.426;2023-07-20T06:23:48;4.82;;;2.67;;
67889;SDS011;54685;52.082;5.426;2023-07-20T06:26:15;3.78;;;2.90;;
67889;SDS011;54685;52.082;5.426;2023-07-20T06:28:42;3.40;;;2.50;;
67889;SDS011;54685;52.082;5.426;2023-07-20T06:31:09;3.83;;;2.58;;
67889;SDS011;54685;52.082;5.426;2023-07-20T06:33:36;3.13;;;2.10;;
67889;SDS011;54685;52.082;5.426;2023-07-20T06:36:03;6.65;;;2.33;;
67889;SDS011;54685;52.082;5.426;2023-07-20T06:38:30;3.17;;;1.70;;
67889;SDS011;54685;52.082;5.426;2023-07-20T06:40:57;2.33;;;1.42;;
67889;SDS011;54685;52.082;5.426;2023-07-20T06:43:45;1.77;;;1.58;;
67889;SDS011;54685;52.082;5.426;2023-07-20T06:46:15;2.53;;;1.38;;
67889;SDS011;54685;52.082;5.426;2023-07-20T06:48:42;1.23;;;0.80;;
67889;SDS011;54685;52.082;5.426;2023-07-20T06:51:11;1.98;;;0.90;;
67889;SDS011;54685;52.082;5.426;2023-07-20T06:53:38;7.90;;;1.20;;
67889;SDS011;54685;52.082;5.426;2023-07-20T06:56:05;0.50;;;0.50;;
67889;SDS011;54685;52.082;5.426;2023-07-20T06:58:32;1.38;;;0.93;;
67889;SDS011;54685;52.082;5.426;2023-07-20T07:00:59;2.47;;;1.10;;
67889;SDS011;54685;52.082;5.426;2023-07-20T07:03:30;3.53;;;1.20;;
67889;SDS011;54685;52.082;5.426;2023-07-20T07:05:57;2.75;;;1.00;;
67889;SDS011;54685;52.082;5.426;2023-07-20T07:08:24;2.08;;;0.88;;
67889;SDS011;54685;52.082;5.426;2023-07-20T07:10:51;2.33;;;1.00;;
67889;SDS011;54685;52.082;5.426;2023-07-20T07:13:19;1.60;;;0.98;;
67889;SDS011;54685;52.082;5.426;2023-07-20T07:15:45;1.50;;;0.82;;
67889;SDS011;54685;52.082;5.426;2023-07-20T07:18:12;1.02;;;0.80;;
67889;SDS011;54685;52.082;5.426;2023-07-20T07:20:39;0.98;;;0.82;;
67889;SDS011;54685;52.082;5.426;2023-07-20T07:23:06;2.65;;;0.93;;
67889;SDS011;54685;52.082;5.426;2023-07-20T07:25:33;2.40;;;0.90;;
67889;SDS011;54685;52.082;5.426;2023-07-20T07:28:00;1.75;;;0.75;;
67889;SDS011;54685;52.082;5.426;2023-07-20T07:30:27;1.55;;;0.80;;
67889;SDS011;54685;52.082;5.426;2023-07-20T07:32:53;1.83;;;0.80;;
67889;SDS011;54685;52.082;5.426;2023-07-20T07:35:20;0.90;;;0.75;;
67889;SDS011;54685;52.082;5.426;2023-07-20T07:37:47;1.80;;;0.70;;
67889;SDS011;54685;52.082;5.426;2023-07-20T07:40:17;3.22;;;0.80;;
67889;SDS011;54685;52.082;5.426;2023-07-20T07:42:45;1.50;;;0.80;;
67889;SDS011;54685;52.082;5.426;2023-07-20T07:45:13;0.63;;;0.63;;
67889;SDS011;54685;52.082;5.426;2023-07-20T07:47:41;1.83;;;0.80;;
67889;SDS011;54685;52.082;5.426;2023-07-20T07:50:08;1.15;;;0.70;;
67889;SDS011;54685;52.082;5.426;2023-07-20T07:52:36;2.00;;;0.82;;
67889;SDS011;54685;52.082;5.426;2023-07-20T07:55:03;1.25;;;0.65;;
67889;SDS011;54685;52.082;5.426;2023-07-20T07:57:31;2.65;;;0.90;;
67889;SDS011;54685;52.082;5.426;2023-07-20T07:59:58;0.98;;;0.80;;
67889;SDS011;54685;52.082;5.426;2023-07-20T08:02:24;1.05;;;0.70;;
67889;SDS011;54685;52.082;5.426;2023-07-20T08:04:51;2.13;;;1.33;;
67889;SDS011;54685;52.082;5.426;2023-07-20T08:07:18;1.35;;;0.80;;
67889;SDS011;54685;52.082;5.426;2023-07-20T08:09:45;1.70;;;0.60;;
67889;SDS011;54685;52.082;5.426;2023-07-20T08:12:12;1.23;;;0.77;;
67889;SDS011;54685;52.082;5.426;2023-07-20T08:14:39;3.40;;;0.80;;
67889;SDS011;54685;52.082;5.426;2023-07-20T08:17:06;0.88;;;0.55;;
67889;SDS011;54685;52.082;5.426;2023-07-20T08:19:33;1.00;;;0.50;;
67889;SDS011;54685;52.082;5.426;2023-07-20T08:22:03;1.77;;;0.75;;
67889;SDS011;54685;52.082;5.426;2023-07-20T08:24:30;1.00;;;0.60;;
67889;SDS011;54685;52.082;5.426;2023-07-20T08:26:57;1.65;;;0.50;;
67889;SDS011;54685;52.082;5.426;2023-07-20T08:29:24;0.40;;;0.40;;
67889;SDS011;54685;52.082;5.426;2023-07-20T08:31:51;0.60;;;0.60;;
67889;SDS011;54685;52.082;5.426;2023-07-20T08:34:18;2.03;;;0.70;;
67889;SDS011;54685;52.082;5.426;2023-07-20T08:36:57;1.70;;;0.80;;
67889;SDS011;54685;52.082;5.426;2023-07-20T08:39:25;0.88;;;0.50;;
67889;SDS011;54685;52.082;5.426;2023-07-20T08:41:51;3.65;;;0.63;;
67889;SDS011;54685;52.082;5.426;2023-07-20T08:44:18;1.42;;;0.55;;
67889;SDS011;54685;52.082;5.426;2023-07-20T08:46:45;0.50;;;0.45;;
67889;SDS011;54685;52.082;5.426;2023-07-20T08:49:15;0.93;;;0.50;;
67889;SDS011;54685;52.082;5.426;2023-07-20T08:51:45;0.93;;;0.50;;
67889;SDS011;54685;52.082;5.426;2023-07-20T08:54:13;1.48;;;0.55;;
67889;SDS011;54685;52.082;5.426;2023-07-20T08:56:42;0.95;;;0.60;;
67889;SDS011;54685;52.082;5.426;2023-07-20T08:59:12;0.57;;;0.57;;
67889;SDS011;54685;52.082;5.426;2023-07-20T09:01:42;0.50;;;0.50;;
67889;SDS011;54685;52.082;5.426;2023-07-20T09:04:11;1.13;;;0.55;;
67889;SDS011;54685;52.082;5.426;2023-07-20T09:06:39;1.77;;;0.60;;
67889;SDS011;54685;52.082;5.426;2023-07-20T09:09:11;0.77;;;0.40;;
67889;SDS011;54685;52.082;5.426;2023-07-20T09:11:37;0.60;;;0.30;;
67889;SDS011;54685;52.082;5.426;2023-07-20T09:14:07;1.13;;;0.43;;
67889;SDS011;54685;52.082;5.426;2023-07-20T09:16:48;0.82;;;0.50;;
67889;SDS011;54685;52.082;5.426;2023-07-20T09:19:16;0.55;;;0.35;;
67889;SDS011;54685;52.082;5.426;2023-07-20T09:21:44;1.42;;;0.60;;
67889;SDS011;54685;52.082;5.426;2023-07-20T09:24:16;0.73;;;0.38;;
67889;SDS011;54685;52.082;5.426;2023-07-20T09:26:45;0.50;;;0.40;;
67889;SDS011;54685;52.082;5.426;2023-07-20T09:29:20;0.57;;;0.40;;
67889;SDS011;54685;52.082;5.426;2023-07-20T09:31:58;1.42;;;0.50;;
67889;SDS011;54685;52.082;5.426;2023-07-20T09:37:02;1.80;;;0.55;;
67889;SDS011;54685;52.082;5.426;2023-07-20T09:39:31;0.85;;;0.60;;
67889;SDS011;54685;52.082;5.426;2023-07-20T09:42:01;0.52;;;0.50;;
67889;SDS011;54685;52.082;5.426;2023-07-20T09:44:31;0.60;;;0.50;;
67889;SDS011;54685;52.082;5.426;2023-07-20T09:47:02;1.08;;;0.47;;
67889;SDS011;54685;52.082;5.426;2023-07-20T09:49:31;0.32;;;0.32;;
67889;SDS011;54685;52.082;5.426;2023-07-20T09:52:18;1.25;;;0.45;;
67889;SDS011;54685;52.082;5.426;2023-07-20T09:54:48;0.30;;;0.30;;
67889;SDS011;54685;52.082;5.426;2023-07-20T09:57:16;0.93;;;0.60;;
67889;SDS011;54685;52.082;5.426;2023-07-20T09:59:44;0.50;;;0.40;;
67889;SDS011;54685;52.082;5.426;2023-07-20T10:02:20;0.80;;;0.30;;
67889;SDS011;54685;52.082;5.426;2023-07-20T10:04:52;0.68;;;0.50;;
67889;SDS011;54685;52.082;5.426;2023-07-20T10:07:21;1.17;;;0.65;;
67889;SDS011;54685;52.082;5.426;2023-07-20T10:09:50;0.60;;;0.47;;
67889;SDS011;54685;52.082;5.426;2023-07-20T10:12:19;0.52;;;0.38;;
67889;SDS011;54685;52.082;5.426;2023-07-20T10:15:02;1.70;;;0.80;;
67889;SDS011;54685;52.082;5.426;2023-07-20T10:17:53;0.70;;;0.43;;
67889;SDS011;54685;52.082;5.426;2023-07-20T10:20:39;1.50;;;0.30;;
67889;SDS011;54685;52.082;5.426;2023-07-20T10:23:13;0.43;;;0.43;;
67889;SDS011;54685;52.082;5.426;2023-07-20T10:25:40;0.73;;;0.47;;
67889;SDS011;54685;52.082;5.426;2023-07-20T10:28:08;2.63;;;0.70;;
67889;SDS011;54685;52.082;5.426;2023-07-20T10:30:37;0.40;;;0.40;;
67889;SDS011;54685;52.082;5.426;2023-07-20T10:33:05;0.55;;;0.30;;
67889;SDS011;54685;52.082;5.426;2023-07-20T10:35:54;0.63;;;0.43;;
67889;SDS011;54685;52.082;5.426;2023-07-20T10:38:38;0.50;;;0.50;;
67889;SDS011;54685;52.082;5.426;2023-07-20T10:43:46;0.63;;;0.40;;
67889;SDS011;54685;52.082;5.426;2023-07-20T10:46:14;0.80;;;0.52;;
67889;SDS011;54685;52.082;5.426;2023-07-20T10:49:00;0.40;;;0.40;;
67889;SDS011;54685;52.082;5.426;2023-07-20T10:51:28;3.03;;;0.45;;
67889;SDS011;54685;52.082;5.426;2023-07-20T10:53:58;0.93;;;0.50;;
67889;SDS011;54685;52.082;5.426;2023-07-20T10:56:28;1.30;;;0.40;;
67889;SDS011;54685;52.082;5.426;2023-07-20T10:58:59;0.65;;;0.40;;
67889;SDS011;54685;52.082;5.426;2023-07-20T11:01:30;1.48;;;0.40;;
67889;SDS011;54685;52.082;5.426;2023-07-20T11:04:04;0.30;;;0.30;;
67889;SDS011;54685;52.082;5.426;2023-07-20T11:06:34;0.40;;;0.40;;
67889;SDS011;54685;52.082;5.426;2023-07-20T11:11:34;0.70;;;0.45;;
67889;SDS011;54685;52.082;5.426;2023-07-20T11:14:03;1.00;;;0.43;;
67889;SDS011;54685;52.082;5.426;2023-07-20T11:19:10;1.45;;;0.50;;
67889;SDS011;54685;52.082;5.426;2023-07-20T11:22:01;1.08;;;0.40;;
67889;SDS011;54685;52.082;5.426;2023-07-20T11:24:34;0.57;;;0.40;;
67889;SDS011;54685;52.082;5.426;2023-07-20T11:27:04;0.70;;;0.40;;
67889;SDS011;54685;52.082;5.426;2023-07-20T11:29:31;1.40;;;0.40;;
67889;SDS011;54685;52.082;5.426;2023-07-20T11:32:00;1.05;;;0.30;;
67889;SDS011;54685;52.082;5.426;2023-07-20T11:34:31;0.43;;;0.30;;
67889;SDS011;54685;52.082;5.426;2023-07-20T11:36:59;1.00;;;0.52;;
67889;SDS011;54685;52.082;5.426;2023-07-20T11:39:29;1.15;;;0.40;;
67889;SDS011;54685;52.082;5.426;2023-07-20T11:41:56;1.50;;;0.45;;
67889;SDS011;54685;52.082;5.426;2023-07-20T11:44:26;0.75;;;0.65;;
67889;SDS011;54685;52.082;5.426;2023-07-20T11:47:04;1.02;;;0.50;;
67889;SDS011;54685;52.082;5.426;2023-07-20T11:49:36;1.92;;;0.70;;
67889;SDS011;54685;52.082;5.426;2023-07-20T11:52:08;1.25;;;0.40;;
67889;SDS011;54685;52.082;5.426;2023-07-20T11:54:40;0.40;;;0.38;;
67889;SDS011;54685;52.082;5.426;2023-07-20T11:57:17;2.90;;;0.30;;
67889;SDS011;54685;52.082;5.426;2023-07-20T11:59:54;1.13;;;0.47;;
67889;SDS011;54685;52.082;5.426;2023-07-20T12:02:29;2.40;;;0.40;;
67889;SDS011;54685;52.082;5.426;2023-07-20T12:04:56;1.35;;;0.75;;
67889;SDS011;54685;52.082;5.426;2023-07-20T12:07:26;0.60;;;0.40;;
67889;SDS011;54685;52.082;5.426;2023-07-20T12:10:04;0.57;;;0.38;;
67889;SDS011;54685;52.082;5.426;2023-07-20T12:12:33;0.57;;;0.40;;
67889;SDS011;54685;52.082;5.426;2023-07-20T12:17:49;0.40;;;0.40;;
67889;SDS011;54685;52.082;5.426;2023-07-20T12:20:36;1.67;;;0.43;;
67889;SDS011;54685;52.082;5.426;2023-07-20T12:23:11;0.50;;;0.47;;
67889;SDS011;54685;52.082;5.426;2023-07-20T12:25:45;1.55;;;0.50;;
67889;SDS011;54685;52.082;5.426;2023-07-20T12:28:17;0.40;;;0.40;;
67889;SDS011;54685;52.082;5.426;2023-07-20T12:30:44;0.77;;;0.60;;
67889;SDS011;54685;52.082;5.426;2023-07-20T12:33:13;1.10;;;0.50;;
67889;SDS011;54685;52.082;5.426;2023-07-20T12:35:43;1.05;;;0.70;;
67889;SDS011;54685;52.082;5.426;2023-07-20T12:38:11;1.75;;;0.50;;
67889;SDS011;54685;52.082;5.426;2023-07-20T12:40:37;3.05;;;0.45;;
67889;SDS011;54685;52.082;5.426;2023-07-20T12:43:04;1.23;;;0.47;;
67889;SDS011;54685;52.082;5.426;2023-07-20T12:45:32;0.90;;;0.45;;
67889;SDS011;54685;52.082;5.426;2023-07-20T12:48:00;0.90;;;0.50;;
67889;SDS011;54685;52.082;5.426;2023-07-20T12:50:26;1.48;;;0.65;;
67889;SDS011;54685;52.082;5.426;2023-07-20T12:52:53;1.17;;;0.60;;
67889;SDS011;54685;52.082;5.426;2023-07-20T12:55:20;2.17;;;0.60;;
67889;SDS011;54685;52.082;5.426;2023-07-20T12:57:47;1.80;;;0.70;;
67889;SDS011;54685;52.082;5.426;2023-07-20T13:00:15;0.50;;;0.40;;
67889;SDS011;54685;52.082;5.426;2023-07-20T13:02:42;0.73;;;0.50;;
67889;SDS011;54685;52.082;5.426;2023-07-20T13:05:10;1.45;;;0.63;;
67889;SDS011;54685;52.082;5.426;2023-07-20T13:07:37;2.13;;;0.60;;
67889;SDS011;54685;52.082;5.426;2023-07-20T13:10:08;1.00;;;0.60;;
67889;SDS011;54685;52.082;5.426;2023-07-20T13:12:36;0.40;;;0.40;;
67889;SDS011;54685;52.082;5.426;2023-07-20T13:15:05;2.60;;;0.70;;
67889;SDS011;54685;52.082;5.426;2023-07-20T13:17:33;3.28;;;0.63;;
67889;SDS011;54685;52.082;5.426;2023-07-20T13:20:05;2.30;;;1.00;;
67889;SDS011;54685;52.082;5.426;2023-07-20T13:22:34;4.68;;;0.82;;
67889;SDS011;54685;52.082;5.426;2023-07-20T13:25:01;0.60;;;0.60;;
67889;SDS011;54685;52.082;5.426;2023-07-20T13:27:28;0.60;;;0.60;;
67889;SDS011;54685;52.082;5.426;2023-07-20T13:29:58;2.22;;;0.70;;
67889;SDS011;54685;52.082;5.426;2023-07-20T13:32:29;1.53;;;0.60;;
67889;SDS011;54685;52.082;5.426;2023-07-20T13:34:59;0.50;;;0.47;;
67889;SDS011;54685;52.082;5.426;2023-07-20T13:37:27;0.73;;;0.55;;
67889;SDS011;54685;52.082;5.426;2023-07-20T13:39:54;1.38;;;0.70;;
67889;SDS011;54685;52.082;5.426;2023-07-20T13:42:23;2.53;;;0.88;;
67889;SDS011;54685;52.082;5.426;2023-07-20T13:44:50;2.65;;;0.80;;
67889;SDS011;54685;52.082;5.426;2023-07-20T13:47:17;1.55;;;0.70;;
67889;SDS011;54685;52.082;5.426;2023-07-20T13:49:46;2.35;;;0.57;;
67889;SDS011;54685;52.082;5.426;2023-07-20T13:52:14;1.05;;;0.57;;
67889;SDS011;54685;52.082;5.426;2023-07-20T13:54:44;2.15;;;0.80;;
67889;SDS011;54685;52.082;5.426;2023-07-20T13:57:15;0.67;;;0.63;;
67889;SDS011;54685;52.082;5.426;2023-07-20T13:59:42;1.55;;;0.60;;
67889;SDS011;54685;52.082;5.426;2023-07-20T14:02:09;1.38;;;0.60;;
67889;SDS011;54685;52.082;5.426;2023-07-20T14:04:39;2.28;;;0.70;;
67889;SDS011;54685;52.082;5.426;2023-07-20T14:07:07;1.63;;;0.50;;
67889;SDS011;54685;52.082;5.426;2023-07-20T14:09:35;0.90;;;0.60;;
67889;SDS011;54685;52.082;5.426;2023-07-20T14:12:03;1.58;;;0.60;;
67889;SDS011;54685;52.082;5.426;2023-07-20T14:14:34;2.88;;;0.77;;
67889;SDS011;54685;52.082;5.426;2023-07-20T14:17:00;1.60;;;0.60;;
67889;SDS011;54685;52.082;5.426;2023-07-20T14:19:27;1.38;;;0.80;;
67889;SDS011;54685;52.082;5.426;2023-07-20T14:21:54;0.55;;;0.52;;
67889;SDS011;54685;52.082;5.426;2023-07-20T14:24:21;1.27;;;0.82;;
67889;SDS011;54685;52.082;5.426;2023-07-20T14:26:48;1.45;;;0.60;;
67889;SDS011;54685;52.082;5.426;2023-07-20T14:29:17;2.00;;;0.57;;
67889;SDS011;54685;52.082;5.426;2023-07-20T14:31:45;1.50;;;0.80;;
67889;SDS011;54685;52.082;5.426;2023-07-20T14:34:19;2.78;;;0.80;;
67889;SDS011;54685;52.082;5.426;2023-07-20T14:36:45;0.77;;;0.50;;
67889;SDS011;54685;52.082;5.426;2023-07-20T14:39:12;1.05;;;0.63;;
67889;SDS011;54685;52.082;5.426;2023-07-20T14:41:39;1.38;;;0.50;;
67889;SDS011;54685;52.082;5.426;2023-07-20T14:44:06;1.10;;;0.80;;
67889;SDS011;54685;52.082;5.426;2023-07-20T14:46:33;1.13;;;0.60;;
67889;SDS011;54685;52.082;5.426;2023-07-20T14:49:00;1.65;;;0.60;;
67889;SDS011;54685;52.082;5.426;2023-07-20T14:51:28;1.00;;;0.80;;
67889;SDS011;54685;52.082;5.426;2023-07-20T14:54:02;0.95;;;0.60;;
67889;SDS011;54685;52.082;5.426;2023-07-20T14:56:29;1.33;;;0.75;;
67889;SDS011;54685;52.082;5.426;2023-07-20T14:58:56;4.65;;;0.88;;
67889;SDS011;54685;52.082;5.426;2023-07-20T15:01:24;2.05;;;0.98;;
67889;SDS011;54685;52.082;5.426;2023-07-20T15:03:51;1.65;;;0.80;;
67889;SDS011;54685;52.082;5.426;2023-07-20T15:06:25;3.88;;;0.77;;
67889;SDS011;54685;52.082;5.426;2023-07-20T15:08:53;3.25;;;0.70;;
67889;SDS011;54685;52.082;5.426;2023-07-20T15:11:19;1.85;;;0.50;;
67889;SDS011;54685;52.082;5.426;2023-07-20T15:13:46;2.75;;;0.70;;
67889;SDS011;54685;52.082;5.426;2023-07-20T15:16:13;0.75;;;0.65;;
67889;SDS011;54685;52.082;5.426;2023-07-20T15:18:40;0.75;;;0.70;;
67889;SDS011;54685;52.082;5.426;2023-07-20T15:21:14;1.00;;;0.73;;
67889;SDS011;54685;52.082;5.426;2023-07-20T15:23:45;1.60;;;0.90;;